KGYY/GYY METAR and TAF weather

Enter ICAO airport designator
Station Type Date Time Source
KGYY METAR 2019/12/09 21:45 UTC NOAA

KGYY 092145Z 25009G14KT 7SM BKN016 BKN023 OVC034 10/07 A2948


Station Type Date Time Source
KGYY Decoded METAR 2019/12/09 21:45 UTC NOAA

Gary Regional, IN, United States (KGYY) 41-37N 087-25W
Dec 09, 2019 - 04:45 PM EST / 2019.12.09 2145 UTC
Wind: from the WSW (250 degrees) at 10 MPH (9 KT) gusting to 16 MPH (14 KT):0
Visibility: 7 mile(s):0
Sky conditions: overcast
Temperature: 50 F (10 C)
Dew Point: 44 F (7 C)
Relative Humidity: 81%
Pressure (altimeter): 29.48 in. Hg (998 hPa)
ob: KGYY 092145Z 25009G14KT 7SM BKN016 BKN023 OVC034 10/07 A2948
cycle: 22

Station Type Date Time Source
KGYY TAF 2019/12/09 21:57 UTC NOAA

TAF
AMD KGYY 092055Z 0921/1018 23012G23KT 5SM -DZ BR OVC007
TEMPO 0921/0922 2SM -DZ BR OVC005
FM100000 28020G31KT P6SM OVC015
FM100500 28016G26KT P6SM BKN025
FM101000 29013G21KT P6SM SCT025
FM101600 28013G16KT P6SM FEW250

Example: see airport list